sensor_id;sensor_type;location;lat;lon;timestamp;pressure;altitude;pressure_sealevel;temperature;humidity
25560;BME280;13450;49.374;8.584;2024-02-21T00:00:06;101531.63;;;6.74;nan
25560;BME280;13450;49.374;8.584;2024-02-21T00:02:34;101533.47;;;6.74;nan
25560;BME280;13450;49.374;8.584;2024-02-21T00:05:00;101529.13;;;6.73;nan
25560;BME280;13450;49.374;8.584;2024-02-21T00:07:28;101524.06;;;6.70;nan
25560;BME280;13450;49.374;8.584;2024-02-21T00:09:53;101512.69;;;6.67;nan
25560;BME280;13450;49.374;8.584;2024-02-21T00:12:19;101512.00;;;6.65;nan
25560;BME280;13450;49.374;8.584;2024-02-21T00:14:47;101510.88;;;6.68;nan
25560;BME280;13450;49.374;8.584;2024-02-21T00:17:12;101511.88;;;6.67;nan
25560;BME280;13450;49.374;8.584;2024-02-21T00:19:37;101520.69;;;6.67;nan
25560;BME280;13450;49.374;8.584;2024-02-21T00:22:04;101522.25;;;6.70;nan
25560;BME280;13450;49.374;8.584;2024-02-21T00:24:29;101522.25;;;6.70;nan
25560;BME280;13450;49.374;8.584;2024-02-21T00:26:54;101509.66;;;6.72;nan
25560;BME280;13450;49.374;8.584;2024-02-21T00:29:19;101507.13;;;6.71;nan
25560;BME280;13450;49.374;8.584;2024-02-21T00:31:49;101499.84;;;6.73;nan
25560;BME280;13450;49.374;8.584;2024-02-21T00:34:16;101490.16;;;6.72;nan
25560;BME280;13450;49.374;8.584;2024-02-21T00:36:44;101493.31;;;6.77;nan
25560;BME280;13450;49.374;8.584;2024-02-21T00:39:09;101490.63;;;6.77;nan
25560;BME280;13450;49.374;8.584;2024-02-21T00:41:34;101483.59;;;6.76;nan
25560;BME280;13450;49.374;8.584;2024-02-21T00:43:59;101479.16;;;6.76;nan
25560;BME280;13450;49.374;8.584;2024-02-21T00:46:27;101473.69;;;6.78;nan
25560;BME280;13450;49.374;8.584;2024-02-21T00:48:55;101472.72;;;6.79;nan
25560;BME280;13450;49.374;8.584;2024-02-21T00:51:20;101462.06;;;6.79;nan
25560;BME280;13450;49.374;8.584;2024-02-21T00:53:45;101468.81;;;6.83;nan
25560;BME280;13450;49.374;8.584;2024-02-21T00:56:10;101469.66;;;6.84;nan
25560;BME280;13450;49.374;8.584;2024-02-21T00:58:36;101472.16;;;6.85;nan
25560;BME280;13450;49.374;8.584;2024-02-21T01:01:03;101450.88;;;6.85;nan
25560;BME280;13450;49.374;8.584;2024-02-21T01:03:28;101438.00;;;6.80;nan
25560;BME280;13450;49.374;8.584;2024-02-21T01:05:54;101432.78;;;6.79;nan
25560;BME280;13450;49.374;8.584;2024-02-21T01:08:19;101430.13;;;6.79;nan
25560;BME280;13450;49.374;8.584;2024-02-21T01:10:46;101424.13;;;6.77;nan
25560;BME280;13450;49.374;8.584;2024-02-21T01:13:12;101421.47;;;6.77;nan
25560;BME280;13450;49.374;8.584;2024-02-21T01:15:40;101419.75;;;6.76;nan
25560;BME280;13450;49.374;8.584;2024-02-21T01:18:05;101407.56;;;6.73;nan
25560;BME280;13450;49.374;8.584;2024-02-21T01:20:31;101411.34;;;6.71;nan
25560;BME280;13450;49.374;8.584;2024-02-21T01:22:56;101421.84;;;6.72;nan
25560;BME280;13450;49.374;8.584;2024-02-21T01:25:25;101429.16;;;6.70;nan
25560;BME280;13450;49.374;8.584;2024-02-21T01:27:50;101443.28;;;6.71;nan
25560;BME280;13450;49.374;8.584;2024-02-21T01:30:18;101445.25;;;6.69;nan
25560;BME280;13450;49.374;8.584;2024-02-21T01:32:46;101439.91;;;6.69;nan
25560;BME280;13450;49.374;8.584;2024-02-21T01:35:14;101433.88;;;6.66;nan
25560;BME280;13450;49.374;8.584;2024-02-21T01:37:41;101424.22;;;6.65;nan
25560;BME280;13450;49.374;8.584;2024-02-21T01:40:07;101421.81;;;6.62;nan
25560;BME280;13450;49.374;8.584;2024-02-21T01:42:33;101422.81;;;6.61;nan
25560;BME280;13450;49.374;8.584;2024-02-21T01:44:58;101423.91;;;6.59;nan
25560;BME280;13450;49.374;8.584;2024-02-21T01:47:26;101420.56;;;6.57;nan
25560;BME280;13450;49.374;8.584;2024-02-21T01:49:51;101412.72;;;6.55;nan
25560;BME280;13450;49.374;8.584;2024-02-21T01:52:17;101418.03;;;6.55;nan
25560;BME280;13450;49.374;8.584;2024-02-21T01:54:48;101420.81;;;6.53;nan
25560;BME280;13450;49.374;8.584;2024-02-21T01:57:14;101418.03;;;6.55;nan
25560;BME280;13450;49.374;8.584;2024-02-21T01:59:40;101414.94;;;6.50;nan
25560;BME280;13450;49.374;8.584;2024-02-21T02:02:05;101408.63;;;6.51;nan
25560;BME280;13450;49.374;8.584;2024-02-21T02:04:33;101407.09;;;6.48;nan
25560;BME280;13450;49.374;8.584;2024-02-21T02:07:04;101404.56;;;6.47;nan
25560;BME280;13450;49.374;8.584;2024-02-21T02:09:32;101405.38;;;6.47;nan
25560;BME280;13450;49.374;8.584;2024-02-21T02:11:57;101403.84;;;6.45;nan
25560;BME280;13450;49.374;8.584;2024-02-21T02:14:24;101403.00;;;6.44;nan
25560;BME280;13450;49.374;8.584;2024-02-21T02:16:50;101395.28;;;6.41;nan
25560;BME280;13450;49.374;8.584;2024-02-21T02:19:15;101395.28;;;6.41;nan
25560;BME280;13450;49.374;8.584;2024-02-21T02:21:46;101398.94;;;6.40;nan
25560;BME280;13450;49.374;8.584;2024-02-21T02:24:11;101389.41;;;6.37;nan
25560;BME280;13450;49.374;8.584;2024-02-21T02:26:39;101372.88;;;6.34;nan
25560;BME280;13450;49.374;8.584;2024-02-21T02:29:04;101372.03;;;6.33;nan
25560;BME280;13450;49.374;8.584;2024-02-21T02:31:31;101365.03;;;6.32;nan
25560;BME280;13450;49.374;8.584;2024-02-21T02:33:56;101363.63;;;6.28;nan
25560;BME280;13450;49.374;8.584;2024-02-21T02:36:22;101364.44;;;6.28;nan
25560;BME280;13450;49.374;8.584;2024-02-21T02:38:47;101356.75;;;6.25;nan
25560;BME280;13450;49.374;8.584;2024-02-21T02:41:15;101349.63;;;6.26;nan
25560;BME280;13450;49.374;8.584;2024-02-21T02:43:42;101341.22;;;6.21;nan
25560;BME280;13450;49.374;8.584;2024-02-21T02:46:09;101337.69;;;6.20;nan
25560;BME280;13450;49.374;8.584;2024-02-21T02:48:35;101322.84;;;6.18;nan
25560;BME280;13450;49.374;8.584;2024-02-21T02:51:00;101336.44;;;6.14;nan
25560;BME280;13450;49.374;8.584;2024-02-21T02:53:25;101330.28;;;6.14;nan
25560;BME280;13450;49.374;8.584;2024-02-21T02:55:51;101328.72;;;6.11;nan
25560;BME280;13450;49.374;8.584;2024-02-21T02:58:16;101340.34;;;6.10;nan
25560;BME280;13450;49.374;8.584;2024-02-21T03:00:41;101340.59;;;6.07;nan
25560;BME280;13450;49.374;8.584;2024-02-21T03:03:07;101330.94;;;6.06;nan
25560;BME280;13450;49.374;8.584;2024-02-21T03:05:33;101327.31;;;6.07;nan
25560;BME280;13450;49.374;8.584;2024-02-21T03:08:01;101310.66;;;6.05;nan
25560;BME280;13450;49.374;8.584;2024-02-21T03:10:26;101310.78;;;6.04;nan
25560;BME280;13450;49.374;8.584;2024-02-21T03:12:51;101301.97;;;6.03;nan
25560;BME280;13450;49.374;8.584;2024-02-21T03:15:18;101309.94;;;6.03;nan
25560;BME280;13450;49.374;8.584;2024-02-21T03:17:43;101307.28;;;6.03;nan
25560;BME280;13450;49.374;8.584;2024-02-21T03:20:12;101304.72;;;6.01;nan
25560;BME280;13450;49.374;8.584;2024-02-21T03:22:38;101296.06;;;5.99;nan
25560;BME280;13450;49.374;8.584;2024-02-21T03:25:04;101297.03;;;5.98;nan
25560;BME280;13450;49.374;8.584;2024-02-21T03:27:29;101299.69;;;5.98;nan
25560;BME280;13450;49.374;8.584;2024-02-21T03:29:55;101282.91;;;5.98;nan
25560;BME280;13450;49.374;8.584;2024-02-21T03:32:22;101279.25;;;5.99;nan
25560;BME280;13450;49.374;8.584;2024-02-21T03:34:47;101285.56;;;5.98;nan
25560;BME280;13450;49.374;8.584;2024-02-21T03:37:15;101276.72;;;5.97;nan
25560;BME280;13450;49.374;8.584;2024-02-21T03:39:43;101270.59;;;5.97;nan
25560;BME280;13450;49.374;8.584;2024-02-21T03:42:08;101271.59;;;5.96;nan
25560;BME280;13450;49.374;8.584;2024-02-21T03:44:33;101275.19;;;5.95;nan
25560;BME280;13450;49.374;8.584;2024-02-21T03:47:01;101263.88;;;5.93;nan
25560;BME280;13450;49.374;8.584;2024-02-21T03:49:29;101264.84;;;5.92;nan
25560;BME280;13450;49.374;8.584;2024-02-21T03:51:55;101272.94;;;5.90;nan
25560;BME280;13450;49.374;8.584;2024-02-21T03:54:20;101271.41;;;5.87;nan
25560;BME280;13450;49.374;8.584;2024-02-21T03:56:46;101272.66;;;5.83;nan
25560;BME280;13450;49.374;8.584;2024-02-21T03:59:16;101275.19;;;5.85;nan
25560;BME280;13450;49.374;8.584;2024-02-21T04:01:41;101284.25;;;5.82;nan
25560;BME280;13450;49.374;8.584;2024-02-21T04:04:06;101280.88;;;5.80;nan
25560;BME280;13450;49.374;8.584;2024-02-21T04:06:32;101276.66;;;5.78;nan
25560;BME280;13450;49.374;8.584;2024-02-21T04:08:58;101286.44;;;5.77;nan
25560;BME280;13450;49.374;8.584;2024-02-21T04:11:23;101293.72;;;5.75;nan
25560;BME280;13450;49.374;8.584;2024-02-21T04:13:50;101297.34;;;5.74;nan
25560;BME280;13450;49.374;8.584;2024-02-21T04:16:16;101300.25;;;5.71;nan
25560;BME280;13450;49.374;8.584;2024-02-21T04:18:44;101302.22;;;5.69;nan
25560;BME280;13450;49.374;8.584;2024-02-21T04:21:10;101306.81;;;5.67;nan
25560;BME280;13450;49.374;8.584;2024-02-21T04:23:35;101298.16;;;5.65;nan
25560;BME280;13450;49.374;8.584;2024-02-21T04:26:01;101303.72;;;5.61;nan
25560;BME280;13450;49.374;8.584;2024-02-21T04:28:26;101284.69;;;5.56;nan
25560;BME280;13450;49.374;8.584;2024-02-21T04:30:51;101283.25;;;5.52;nan
25560;BME280;13450;49.374;8.584;2024-02-21T04:33:19;101282.53;;;5.50;nan
25560;BME280;13450;49.374;8.584;2024-02-21T04:35:44;101281.09;;;5.46;nan
25560;BME280;13450;49.374;8.584;2024-02-21T04:38:10;101280.78;;;5.39;nan
25560;BME280;13450;49.374;8.584;2024-02-21T04:40:35;101268.91;;;5.33;nan
25560;BME280;13450;49.374;8.584;2024-02-21T04:43:00;101268.16;;;5.31;nan
25560;BME280;13450;49.374;8.584;2024-02-21T04:45:25;101261.19;;;5.30;nan
25560;BME280;13450;49.374;8.584;2024-02-21T04:47:51;101252.53;;;5.28;nan
25560;BME280;13450;49.374;8.584;2024-02-21T04:50:18;101256.28;;;5.26;nan
25560;BME280;13450;49.374;8.584;2024-02-21T04:52:46;101252.03;;;5.23;nan
25560;BME280;13450;49.374;8.584;2024-02-21T04:55:14;101248.94;;;5.18;nan
25560;BME280;13450;49.374;8.584;2024-02-21T04:57:39;101243.91;;;5.15;nan
25560;BME280;13450;49.374;8.584;2024-02-21T05:00:06;101233.56;;;5.12;nan
25560;BME280;13450;49.374;8.584;2024-02-21T05:02:31;101234.66;;;5.09;nan
25560;BME280;13450;49.374;8.584;2024-02-21T05:04:56;101228.78;;;5.05;nan
25560;BME280;13450;49.374;8.584;2024-02-21T05:07:22;101224.41;;;5.04;nan
25560;BME280;13450;49.374;8.584;2024-02-21T05:09:47;101215.03;;;5.00;nan
25560;BME280;13450;49.374;8.584;2024-02-21T05:12:12;101213.59;;;4.96;nan
25560;BME280;13450;49.374;8.584;2024-02-21T05:14:38;101208.69;;;4.91;nan
25560;BME280;13450;49.374;8.584;2024-02-21T05:17:04;101216.91;;;4.88;nan
25560;BME280;13450;49.374;8.584;2024-02-21T05:19:29;101224.41;;;4.83;nan
25560;BME280;13450;49.374;8.584;2024-02-21T05:21:54;101217.56;;;4.80;nan
25560;BME280;13450;49.374;8.584;2024-02-21T05:24:20;101216.25;;;4.75;nan
25560;BME280;13450;49.374;8.584;2024-02-21T05:26:45;101208.69;;;4.70;nan
25560;BME280;13450;49.374;8.584;2024-02-21T05:29:11;101207.84;;;4.69;nan
25560;BME280;13450;49.374;8.584;2024-02-21T05:34:17;101219.53;;;4.67;nan
25560;BME280;13450;49.374;8.584;2024-02-21T05:36:43;101217.13;;;4.64;nan
25560;BME280;13450;49.374;8.584;2024-02-21T05:39:09;101211.13;;;4.62;nan
25560;BME280;13450;49.374;8.584;2024-02-21T05:41:36;101208.72;;;4.58;nan
25560;BME280;13450;49.374;8.584;2024-02-21T05:44:04;101199.94;;;4.58;nan
25560;BME280;13450;49.374;8.584;2024-02-21T05:46:32;101206.31;;;4.55;nan
25560;BME280;13450;49.374;8.584;2024-02-21T05:48:57;101202.13;;;4.53;nan
25560;BME280;13450;49.374;8.584;2024-02-21T05:51:22;101194.44;;;4.50;nan
25560;BME280;13450;49.374;8.584;2024-02-21T05:53:48;101198.19;;;4.47;nan
25560;BME280;13450;49.374;8.584;2024-02-21T05:56:14;101194.22;;;4.41;nan
25560;BME280;13450;49.374;8.584;2024-02-21T05:58:39;101196.28;;;4.38;nan
25560;BME280;13450;49.374;8.584;2024-02-21T06:01:05;101195.69;;;4.34;nan
25560;BME280;13450;49.374;8.584;2024-02-21T06:03:32;101198.59;;;4.31;nan
25560;BME280;13450;49.374;8.584;2024-02-21T06:05:58;101191.88;;;4.27;nan
25560;BME280;13450;49.374;8.584;2024-02-21T06:08:24;101186.56;;;4.27;nan
25560;BME280;13450;49.374;8.584;2024-02-21T06:10:49;101185.00;;;4.24;nan
25560;BME280;13450;49.374;8.584;2024-02-21T06:13:17;101172.13;;;4.19;nan
25560;BME280;13450;49.374;8.584;2024-02-21T06:15:48;101175.97;;;4.15;nan
25560;BME280;13450;49.374;8.584;2024-02-21T06:18:15;101176.97;;;4.14;nan
25560;BME280;13450;49.374;8.584;2024-02-21T06:20:40;101170.94;;;4.12;nan
25560;BME280;13450;49.374;8.584;2024-02-21T06:23:08;101170.81;;;4.14;nan
25560;BME280;13450;49.374;8.584;2024-02-21T06:25:36;101170.56;;;4.17;nan
25560;BME280;13450;49.374;8.584;2024-02-21T06:28:01;101175.00;;;4.16;nan
25560;BME280;13450;49.374;8.584;2024-02-21T06:30:29;101176.44;;;4.21;nan
25560;BME280;13450;49.374;8.584;2024-02-21T06:32:54;101180.94;;;4.20;nan
25560;BME280;13450;49.374;8.584;2024-02-21T06:35:22;101168.63;;;4.19;nan
25560;BME280;13450;49.374;8.584;2024-02-21T06:37:50;101177.31;;;4.21;nan
25560;BME280;13450;49.374;8.584;2024-02-21T06:40:21;101171.28;;;4.19;nan
25560;BME280;13450;49.374;8.584;2024-02-21T06:42:49;101165.97;;;4.19;nan
25560;BME280;13450;49.374;8.584;2024-02-21T06:45:15;101168.13;;;4.25;nan
25560;BME280;13450;49.374;8.584;2024-02-21T06:47:43;101165.50;;;4.25;nan
25560;BME280;13450;49.374;8.584;2024-02-21T06:50:09;101173.91;;;4.30;nan
25560;BME280;13450;49.374;8.584;2024-02-21T06:52:37;101169.56;;;4.29;nan
25560;BME280;13450;49.374;8.584;2024-02-21T06:55:03;101178.22;;;4.31;nan
25560;BME280;13450;49.374;8.584;2024-02-21T06:57:29;101175.56;;;4.31;nan
25560;BME280;13450;49.374;8.584;2024-02-21T06:59:55;101172.69;;;4.35;nan
25560;BME280;13450;49.374;8.584;2024-02-21T07:02:20;101177.97;;;4.35;nan
25560;BME280;13450;49.374;8.584;2024-02-21T07:04:45;101183.03;;;4.38;nan
25560;BME280;13450;49.374;8.584;2024-02-21T07:07:11;101178.19;;;4.43;nan
25560;BME280;13450;49.374;8.584;2024-02-21T07:09:36;101166.63;;;4.44;nan
25560;BME280;13450;49.374;8.584;2024-02-21T07:12:01;101174.44;;;4.45;nan
25560;BME280;13450;49.374;8.584;2024-02-21T07:14:32;101177.56;;;4.51;nan
25560;BME280;13450;49.374;8.584;2024-02-21T07:16:58;101173.81;;;4.53;nan
25560;BME280;13450;49.374;8.584;2024-02-21T07:19:23;101174.50;;;4.55;nan
25560;BME280;13450;49.374;8.584;2024-02-21T07:21:48;101171.63;;;4.58;nan
25560;BME280;13450;49.374;8.584;2024-02-21T07:24:14;101169.53;;;4.62;nan
25560;BME280;13450;49.374;8.584;2024-02-21T07:26:42;101160.22;;;4.68;nan
25560;BME280;13450;49.374;8.584;2024-02-21T07:29:11;101162.38;;;4.74;nan
25560;BME280;13450;49.374;8.584;2024-02-21T07:31:43;101158.50;;;4.78;nan
25560;BME280;13450;49.374;8.584;2024-02-21T07:34:16;101148.78;;;4.89;nan
25560;BME280;13450;49.374;8.584;2024-02-21T07:36:41;101153.31;;;4.98;nan
25560;BME280;13450;49.374;8.584;2024-02-21T07:39:07;101151.69;;;5.07;nan
25560;BME280;13450;49.374;8.584;2024-02-21T07:41:35;101157.03;;;5.17;nan
25560;BME280;13450;49.374;8.584;2024-02-21T07:44:00;101158.78;;;5.28;nan
25560;BME280;13450;49.374;8.584;2024-02-21T07:46:26;101162.44;;;5.36;nan
25560;BME280;13450;49.374;8.584;2024-02-21T07:48:51;101161.63;;;5.46;nan
25560;BME280;13450;49.374;8.584;2024-02-21T07:51:16;101158.03;;;5.57;nan
25560;BME280;13450;49.374;8.584;2024-02-21T07:53:45;101150.13;;;5.67;nan
25560;BME280;13450;49.374;8.584;2024-02-21T07:56:14;101143.97;;;5.76;nan
25560;BME280;13450;49.374;8.584;2024-02-21T07:58:42;101143.75;;;5.89;nan
25560;BME280;13450;49.374;8.584;2024-02-21T08:01:08;101137.44;;;6.00;nan
25560;BME280;13450;49.374;8.584;2024-02-21T08:03:34;101136.38;;;6.12;nan
25560;BME280;13450;49.374;8.584;2024-02-21T08:05:59;101135.53;;;6.22;nan
25560;BME280;13450;49.374;8.584;2024-02-21T08:08:24;101140.31;;;6.28;nan
25560;BME280;13450;49.374;8.584;2024-02-21T08:10:51;101127.44;;;6.33;nan
25560;BME280;13450;49.374;8.584;2024-02-21T08:13:17;101123.53;;;6.37;nan
25560;BME280;13450;49.374;8.584;2024-02-21T08:15:42;101121.28;;;6.43;nan
25560;BME280;13450;49.374;8.584;2024-02-21T08:18:08;101127.28;;;6.54;nan
25560;BME280;13450;49.374;8.584;2024-02-21T08:20:34;101131.91;;;6.62;nan
25560;BME280;13450;49.374;8.584;2024-02-21T08:22:59;101109.63;;;6.73;nan
25560;BME280;13450;49.374;8.584;2024-02-21T08:25:25;101120.09;;;6.85;nan
25560;BME280;13450;49.374;8.584;2024-02-21T08:27:50;101122.63;;;6.86;nan
25560;BME280;13450;49.374;8.584;2024-02-21T08:30:17;101119.25;;;6.94;nan
25560;BME280;13450;49.374;8.584;2024-02-21T08:32:44;101111.94;;;6.96;nan
25560;BME280;13450;49.374;8.584;2024-02-21T08:35:10;101101.00;;;6.99;nan
25560;BME280;13450;49.374;8.584;2024-02-21T08:37:35;101104.34;;;7.01;nan
25560;BME280;13450;49.374;8.584;2024-02-21T08:40:00;101099.28;;;7.08;nan
25560;BME280;13450;49.374;8.584;2024-02-21T08:42:33;101084.41;;;7.15;nan
25560;BME280;13450;49.374;8.584;2024-02-21T08:44:58;101091.97;;;7.20;nan
25560;BME280;13450;49.374;8.584;2024-02-21T08:47:24;101092.13;;;7.18;nan
25560;BME280;13450;49.374;8.584;2024-02-21T08:49:49;101082.72;;;7.24;nan
25560;BME280;13450;49.374;8.584;2024-02-21T08:52:14;101084.25;;;7.27;nan
25560;BME280;13450;49.374;8.584;2024-02-21T08:54:39;101080.38;;;7.39;nan
25560;BME280;13450;49.374;8.584;2024-02-21T08:57:05;101078.13;;;7.44;nan
25560;BME280;13450;49.374;8.584;2024-02-21T08:59:32;101082.81;;;7.61;nan
25560;BME280;13450;49.374;8.584;2024-02-21T09:01:58;101087.00;;;7.63;nan
25560;BME280;13450;49.374;8.584;2024-02-21T09:04:23;101080.06;;;7.70;nan
25560;BME280;13450;49.374;8.584;2024-02-21T09:06:48;101081.31;;;7.94;nan
25560;BME280;13450;49.374;8.584;2024-02-21T09:09:14;101073.31;;;7.94;nan
25560;BME280;13450;49.374;8.584;2024-02-21T09:11:42;101072.06;;;8.07;nan
25560;BME280;13450;49.374;8.584;2024-02-21T09:14:07;101066.44;;;8.28;nan
25560;BME280;13450;49.374;8.584;2024-02-21T09:16:32;101060.88;;;8.21;nan
25560;BME280;13450;49.374;8.584;2024-02-21T09:18:58;101061.25;;;8.27;nan
25560;BME280;13450;49.374;8.584;2024-02-21T09:21:23;101056.03;;;8.43;nan
25560;BME280;13450;49.374;8.584;2024-02-21T09:23:49;101051.47;;;8.54;nan
25560;BME280;13450;49.374;8.584;2024-02-21T09:26:16;101049.84;;;8.61;nan
25560;BME280;13450;49.374;8.584;2024-02-21T09:28:42;101045.41;;;8.70;nan
25560;BME280;13450;49.374;8.584;2024-02-21T09:31:08;101049.28;;;8.75;nan
25560;BME280;13450;49.374;8.584;2024-02-21T09:33:33;101048.63;;;8.82;nan
25560;BME280;13450;49.374;8.584;2024-02-21T09:36:04;101047.47;;;8.84;nan
25560;BME280;13450;49.374;8.584;2024-02-21T09:38:33;101038.75;;;9.09;nan
25560;BME280;13450;49.374;8.584;2024-02-21T09:41:21;101044.47;;;9.22;nan
25560;BME280;13450;49.374;8.584;2024-02-21T09:43:50;101041.72;;;9.57;nan
25560;BME280;13450;49.374;8.584;2024-02-21T09:46:19;101039.22;;;9.55;nan
25560;BME280;13450;49.374;8.584;2024-02-21T09:51:20;101021.09;;;10.17;nan
25560;BME280;13450;49.374;8.584;2024-02-21T09:53:47;101023.72;;;10.42;nan
25560;BME280;13450;49.374;8.584;2024-02-21T09:56:13;101025.56;;;10.50;nan
25560;BME280;13450;49.374;8.584;2024-02-21T09:58:39;101021.38;;;10.56;nan
25560;BME280;13450;49.374;8.584;2024-02-21T10:01:06;101013.34;;;10.39;nan
25560;BME280;13450;49.374;8.584;2024-02-21T10:03:32;101013.34;;;10.56;nan
25560;BME280;13450;49.374;8.584;2024-02-21T10:06:01;101010.19;;;10.61;nan
25560;BME280;13450;49.374;8.584;2024-02-21T10:08:28;101005.81;;;10.59;nan
25560;BME280;13450;49.374;8.584;2024-02-21T10:10:53;100999.13;;;11.04;nan
25560;BME280;13450;49.374;8.584;2024-02-21T10:13:28;100996.91;;;11.16;nan
25560;BME280;13450;49.374;8.584;2024-02-21T10:16:05;100998.53;;;11.25;nan
25560;BME280;13450;49.374;8.584;2024-02-21T10:18:36;100990.16;;;11.28;nan
25560;BME280;13450;49.374;8.584;2024-02-21T10:21:06;100986.06;;;11.64;nan
25560;BME280;13450;49.374;8.584;2024-02-21T10:23:42;100984.22;;;11.64;nan
25560;BME280;13450;49.374;8.584;2024-02-21T10:26:07;100988.13;;;11.77;nan
25560;BME280;13450;49.374;8.584;2024-02-21T10:28:33;100972.25;;;11.75;nan
25560;BME280;13450;49.374;8.584;2024-02-21T10:30:58;100982.34;;;11.88;nan
25560;BME280;13450;49.374;8.584;2024-02-21T10:33:23;100976.63;;;11.92;nan
25560;BME280;13450;49.374;8.584;2024-02-21T10:35:50;100976.19;;;12.03;nan
25560;BME280;13450;49.374;8.584;2024-02-21T10:38:16;100975.13;;;12.12;nan
25560;BME280;13450;49.374;8.584;2024-02-21T10:40:46;100962.31;;;11.76;nan
25560;BME280;13450;49.374;8.584;2024-02-21T10:43:12;100959.19;;;12.11;nan
25560;BME280;13450;49.374;8.584;2024-02-21T10:45:39;100945.06;;;12.17;nan
25560;BME280;13450;49.374;8.584;2024-02-21T10:48:12;100949.53;;;12.40;nan
25560;BME280;13450;49.374;8.584;2024-02-21T10:53:36;100939.41;;;12.57;nan
25560;BME280;13450;49.374;8.584;2024-02-21T10:58:44;100929.94;;;12.91;nan
25560;BME280;13450;49.374;8.584;2024-02-21T11:01:12;100926.84;;;12.42;nan
25560;BME280;13450;49.374;8.584;2024-02-21T11:03:43;100926.66;;;12.59;nan
25560;BME280;13450;49.374;8.584;2024-02-21T11:06:10;100921.06;;;12.76;nan
25560;BME280;13450;49.374;8.584;2024-02-21T11:08:35;100914.31;;;12.65;nan
25560;BME280;13450;49.374;8.584;2024-02-21T11:11:00;100923.88;;;12.52;nan
25560;BME280;13450;49.374;8.584;2024-02-21T11:13:35;100912.59;;;12.12;nan
25560;BME280;13450;49.374;8.584;2024-02-21T11:16:11;100907.97;;;12.21;nan
25560;BME280;13450;49.374;8.584;2024-02-21T11:18:39;100902.78;;;12.34;nan
25560;BME280;13450;49.374;8.584;2024-02-21T11:21:05;100898.34;;;12.11;nan
25560;BME280;13450;49.374;8.584;2024-02-21T11:23:33;100903.16;;;12.31;nan
25560;BME280;13450;49.374;8.584;2024-02-21T11:26:08;100902.50;;;12.14;nan
25560;BME280;13450;49.374;8.584;2024-02-21T11:28:34;100900.19;;;12.26;nan
25560;BME280;13450;49.374;8.584;2024-02-21T11:31:08;100882.97;;;12.35;nan
25560;BME280;13450;49.374;8.584;2024-02-21T11:33:35;100872.13;;;12.43;nan
25560;BME280;13450;49.374;8.584;2024-02-21T11:36:03;100877.78;;;12.49;nan
25560;BME280;13450;49.374;8.584;2024-02-21T11:38:29;100870.66;;;12.41;nan
25560;BME280;13450;49.374;8.584;2024-02-21T11:40:55;100862.59;;;12.56;nan
25560;BME280;13450;49.374;8.584;2024-02-21T11:43:20;100857.00;;;12.73;nan
25560;BME280;13450;49.374;8.584;2024-02-21T11:45:45;100845.78;;;13.06;nan
25560;BME280;13450;49.374;8.584;2024-02-21T11:48:11;100841.19;;;13.00;nan
25560;BME280;13450;49.374;8.584;2024-02-21T11:50:38;100837.34;;;12.87;nan
25560;BME280;13450;49.374;8.584;2024-02-21T11:53:05;100838.69;;;12.61;nan
25560;BME280;13450;49.374;8.584;2024-02-21T11:55:32;100833.06;;;12.56;nan
25560;BME280;13450;49.374;8.584;2024-02-21T11:57:59;100825.66;;;12.58;nan
25560;BME280;13450;49.374;8.584;2024-02-21T12:00:25;100818.91;;;12.47;nan
25560;BME280;13450;49.374;8.584;2024-02-21T12:02:50;100811.53;;;12.49;nan
25560;BME280;13450;49.374;8.584;2024-02-21T12:05:16;100812.22;;;12.58;nan
25560;BME280;13450;49.374;8.584;2024-02-21T12:07:43;100808.13;;;12.62;nan
25560;BME280;13450;49.374;8.584;2024-02-21T12:10:13;100799.69;;;12.43;nan
25560;BME280;13450;49.374;8.584;2024-02-21T12:12:40;100791.19;;;12.40;nan
25560;BME280;13450;49.374;8.584;2024-02-21T12:15:08;100788.47;;;12.55;nan
25560;BME280;13450;49.374;8.584;2024-02-21T12:17:40;100784.34;;;12.37;nan
25560;BME280;13450;49.374;8.584;2024-02-21T12:20:06;100782.59;;;12.29;nan
25560;BME280;13450;49.374;8.584;2024-02-21T12:22:38;100775.03;;;12.55;nan
25560;BME280;13450;49.374;8.584;2024-02-21T12:25:04;100765.81;;;12.42;nan
25560;BME280;13450;49.374;8.584;2024-02-21T12:27:29;100765.97;;;12.56;nan
25560;BME280;13450;49.374;8.584;2024-02-21T12:29:55;100758.13;;;12.39;nan
25560;BME280;13450;49.374;8.584;2024-02-21T12:32:22;100759.69;;;12.49;nan
25560;BME280;13450;49.374;8.584;2024-02-21T12:34:48;100749.97;;;12.91;nan
25560;BME280;13450;49.374;8.584;2024-02-21T12:37:13;100742.78;;;12.99;nan
25560;BME280;13450;49.374;8.584;2024-02-21T12:39:38;100735.53;;;12.92;nan
25560;BME280;13450;49.374;8.584;2024-02-21T12:42:06;100728.25;;;12.42;nan
25560;BME280;13450;49.374;8.584;2024-02-21T12:44:31;100728.50;;;12.69;nan
25560;BME280;13450;49.374;8.584;2024-02-21T12:46:57;100714.84;;;12.64;nan
25560;BME280;13450;49.374;8.584;2024-02-21T12:49:25;100711.69;;;12.82;nan
25560;BME280;13450;49.374;8.584;2024-02-21T12:51:52;100711.06;;;12.59;nan
25560;BME280;13450;49.374;8.584;2024-02-21T12:54:18;100713.41;;;12.47;nan
25560;BME280;13450;49.374;8.584;2024-02-21T12:56:43;100703.13;;;12.50;nan
25560;BME280;13450;49.374;8.584;2024-02-21T12:59:08;100699.94;;;12.62;nan
25560;BME280;13450;49.374;8.584;2024-02-21T13:01:39;100695.84;;;12.66;nan
25560;BME280;13450;49.374;8.584;2024-02-21T13:04:04;100682.50;;;12.51;nan
25560;BME280;13450;49.374;8.584;2024-02-21T13:06:29;100680.84;;;12.28;nan
25560;BME280;13450;49.374;8.584;2024-02-21T13:08:57;100662.06;;;12.50;nan
25560;BME280;13450;49.374;8.584;2024-02-21T13:11:22;100651.50;;;12.48;nan
25560;BME280;13450;49.374;8.584;2024-02-21T13:13:51;100671.56;;;12.31;nan
25560;BME280;13450;49.374;8.584;2024-02-21T13:16:17;100660.38;;;12.27;nan
25560;BME280;13450;49.374;8.584;2024-02-21T13:18:42;100651.56;;;12.33;nan
25560;BME280;13450;49.374;8.584;2024-02-21T13:21:10;100651.31;;;12.28;nan
25560;BME280;13450;49.374;8.584;2024-02-21T13:23:36;100640.06;;;12.18;nan
25560;BME280;13450;49.374;8.584;2024-02-21T13:26:03;100640.25;;;12.16;nan